createdAt,value
2019-05-09T00:00:46.705Z,73.40
2019-05-09T00:03:15.983Z,74.20
2019-05-09T00:05:45.326Z,72.80
2019-05-09T00:08:14.583Z,73.10
2019-05-09T00:10:44.892Z,72.90
2019-05-09T00:13:14.382Z,73.80
2019-05-09T00:15:43.847Z,73.00
2019-05-09T00:18:14.311Z,73.10
2019-05-09T00:20:51.066Z,72.80
2019-05-09T00:23:20.294Z,73.60
2019-05-09T00:25:49.571Z,72.80
2019-05-09T00:28:18.860Z,72.80
2019-05-09T00:30:55.859Z,74.30
2019-05-09T00:33:26.623Z,73.30
2019-05-09T00:35:55.951Z,73.10
2019-05-09T00:38:29.490Z,74.70
2019-05-09T00:40:59.193Z,73.90
2019-05-09T00:43:28.251Z,74.70
2019-05-09T00:46:04.229Z,74.80
2019-05-09T00:48:34.364Z,75.10
2019-05-09T00:51:03.714Z,74.80
2019-05-09T00:53:33.972Z,74.20
2019-05-09T00:56:04.271Z,74.60
2019-05-09T00:58:33.725Z,75.30
2019-05-09T01:01:04.346Z,74.60
2019-05-09T01:03:34.193Z,74.40
2019-05-09T01:06:04.176Z,75.10
2019-05-09T01:08:33.839Z,74.60
2019-05-09T01:11:11.818Z,74.60
2019-05-09T01:13:34.254Z,74.30
2019-05-09T01:16:04.515Z,74.60
2019-05-09T01:18:34.555Z,75.10
2019-05-09T01:21:04.167Z,75.10
2019-05-09T01:23:34.383Z,74.80
2019-05-09T01:26:04.132Z,74.40
2019-05-09T01:28:34.085Z,75.10
2019-05-09T01:31:04.152Z,74.40
2019-05-09T01:33:40.998Z,74.60
2019-05-09T01:36:10.193Z,74.20
2019-05-09T01:38:39.527Z,74.70
2019-05-09T01:41:23.616Z,74.40
2019-05-09T01:43:39.411Z,73.80
2019-05-09T01:46:08.696Z,73.70
2019-05-09T01:48:37.912Z,73.60
2019-05-09T01:51:07.203Z,73.50
2019-05-09T01:53:44.075Z,73.40
2019-05-09T01:56:14.025Z,73.50
2019-05-09T01:58:43.394Z,73.60
2019-05-09T02:01:13.474Z,73.30
2019-05-09T02:03:44.260Z,73.30
2019-05-09T02:06:13.822Z,73.70
2019-05-09T02:08:43.777Z,73.10
2019-05-09T02:11:13.468Z,73.60
2019-05-09T02:13:44.242Z,73.30
2019-05-09T02:16:15.204Z,73.90
2019-05-09T02:18:48.582Z,73.20
2019-05-09T02:21:17.752Z,73.30
2019-05-09T02:23:46.959Z,73.40
2019-05-09T02:26:15.967Z,73.60
2019-05-09T02:28:45.265Z,73.10
2019-05-09T02:31:16.306Z,73.30
2019-05-09T02:33:45.973Z,73.10
2019-05-09T02:36:18.717Z,73.60
2019-05-09T02:38:48.693Z,73.00
2019-05-09T02:41:19.743Z,73.40
2019-05-09T02:43:49.648Z,73.40
2019-05-09T02:46:31.813Z,72.60
2019-05-09T02:49:01.120Z,72.80
2019-05-09T02:51:30.345Z,73.30
2019-05-09T02:53:59.551Z,73.20
2019-05-09T02:56:29.960Z,72.50
2019-05-09T02:59:04.059Z,72.60
2019-05-09T03:01:43.756Z,72.40
2019-05-09T03:04:13.004Z,72.80
2019-05-09T03:06:42.166Z,72.20
2019-05-09T03:09:11.170Z,72.80
2019-05-09T03:11:40.434Z,72.10
2019-05-09T03:14:09.540Z,72.90
2019-05-09T03:16:39.669Z,72.50
2019-05-09T03:19:09.530Z,72.50
2019-05-09T03:21:40.258Z,72.50
2019-05-09T03:24:10.148Z,72.80
2019-05-09T03:26:41.074Z,72.60
2019-05-09T03:29:19.035Z,72.70
2019-05-09T03:31:50.352Z,73.10
2019-05-09T03:34:19.907Z,72.70
2019-05-09T03:36:49.237Z,72.70
2019-05-09T03:39:18.636Z,72.70
2019-05-09T03:41:48.715Z,73.00
2019-05-09T03:44:18.071Z,72.90
2019-05-09T03:46:48.915Z,73.40
2019-05-09T03:49:19.786Z,73.00
2019-05-09T03:51:48.959Z,73.90
2019-05-09T03:54:18.469Z,73.10
2019-05-09T03:57:01.707Z,74.00
2019-05-09T03:59:30.901Z,73.70
2019-05-09T04:02:00.225Z,73.30
2019-05-09T04:04:29.514Z,73.30
2019-05-09T04:06:58.648Z,73.30
2019-05-09T04:09:27.884Z,73.20
2019-05-09T04:11:59.893Z,73.20
2019-05-09T04:14:32.209Z,73.40
2019-05-09T04:17:01.185Z,73.30
2019-05-09T04:19:30.310Z,73.10
2019-05-09T04:22:02.245Z,73.70
2019-05-09T04:24:31.111Z,72.90
2019-05-09T04:27:08.160Z,73.00
2019-05-09T04:29:37.553Z,73.60
2019-05-09T04:32:07.934Z,73.00
2019-05-09T04:34:38.098Z,73.30
2019-05-09T04:37:08.128Z,73.10
2019-05-09T04:39:40.598Z,73.30
2019-05-09T04:42:09.307Z,73.10
2019-05-09T04:44:42.679Z,73.80
2019-05-09T04:47:11.939Z,73.90
2019-05-09T04:49:45.209Z,73.30
2019-05-09T04:52:11.675Z,73.40
2019-05-09T04:54:41.431Z,73.90
2019-05-09T04:57:10.769Z,73.20
2019-05-09T04:59:39.970Z,73.10
2019-05-09T05:02:29.196Z,73.60
2019-05-09T05:04:58.663Z,73.10
2019-05-09T05:07:28.691Z,73.10
2019-05-09T05:09:58.107Z,73.80
2019-05-09T05:12:27.786Z,73.50
2019-05-09T05:14:58.080Z,72.90
2019-05-09T05:17:28.280Z,73.40
2019-05-09T05:19:58.591Z,72.90
2019-05-09T05:22:29.236Z,72.90
2019-05-09T05:25:00.048Z,73.30
2019-05-09T05:27:29.483Z,73.50
2019-05-09T05:29:58.600Z,72.80
2019-05-09T05:32:44.570Z,72.90
2019-05-09T05:35:17.873Z,72.90
2019-05-09T05:37:47.705Z,72.80
2019-05-09T05:40:17.861Z,72.90
2019-05-09T05:42:47.803Z,72.60
2019-05-09T05:45:18.166Z,72.30
2019-05-09T05:48:03.977Z,72.80
2019-05-09T05:50:33.004Z,71.90
2019-05-09T05:53:02.504Z,71.50
2019-05-09T05:55:31.576Z,71.90
2019-05-09T05:58:00.896Z,71.40
2019-05-09T06:00:30.197Z,70.70
2019-05-09T06:02:59.560Z,71.20
2019-05-09T06:05:28.766Z,71.00
2019-05-09T06:07:57.902Z,70.80
2019-05-09T06:10:29.021Z,70.10
2019-05-09T06:12:59.800Z,71.00
2019-05-09T06:15:29.488Z,69.60
2019-05-09T06:17:58.808Z,69.50
2019-05-09T06:20:28.240Z,69.20
2019-05-09T06:22:58.160Z,69.10
2019-05-09T06:25:30.533Z,69.10
2019-05-09T06:27:58.640Z,69.20
2019-05-09T06:30:29.267Z,69.00
2019-05-09T06:32:58.759Z,69.30
2019-05-09T06:35:28.305Z,69.80
2019-05-09T06:37:58.675Z,69.20
2019-05-09T06:40:28.698Z,69.80
2019-05-09T06:42:59.836Z,69.10
2019-05-09T06:45:39.220Z,68.70
2019-05-09T06:48:07.687Z,68.80
2019-05-09T06:50:37.834Z,68.40
2019-05-09T06:53:07.989Z,69.40
2019-05-09T06:55:38.528Z,68.20
2019-05-09T06:58:27.697Z,67.80
2019-05-09T07:00:58.622Z,67.50
2019-05-09T07:03:29.438Z,67.40
2019-05-09T07:06:08.299Z,67.30
2019-05-09T07:08:49.428Z,67.00
2019-05-09T07:11:19.234Z,66.60
2019-05-09T07:13:48.630Z,67.90
2019-05-09T07:16:18.677Z,67.10
2019-05-09T07:18:48.539Z,66.00
2019-05-09T07:21:18.931Z,66.60
2019-05-09T07:23:48.507Z,66.80
2019-05-09T07:26:19.226Z,65.60
2019-05-09T07:28:48.780Z,66.10
2019-05-09T07:31:28.575Z,65.70
2019-05-09T07:34:02.040Z,65.30
2019-05-09T07:36:31.312Z,64.80
2019-05-09T07:39:00.650Z,65.10
2019-05-09T07:41:30.064Z,65.10
2019-05-09T07:43:59.319Z,65.30
2019-05-09T07:46:29.986Z,64.90
2019-05-09T07:48:59.599Z,64.10
2019-05-09T07:51:28.919Z,63.90
2019-05-09T07:53:59.103Z,63.80
2019-05-09T07:56:31.159Z,63.60
2019-05-09T07:59:00.582Z,62.90
2019-05-09T08:01:29.851Z,63.10
2019-05-09T08:03:59.226Z,62.90
2019-05-09T08:06:28.826Z,61.80
2019-05-09T08:08:58.443Z,62.20
2019-05-09T08:11:28.457Z,62.10
2019-05-09T08:13:58.403Z,62.90
2019-05-09T08:16:28.054Z,63.10
2019-05-09T08:18:57.923Z,62.10
2019-05-09T08:21:27.818Z,62.30
2019-05-09T08:23:57.892Z,61.30
2019-05-09T08:26:29.784Z,62.10
2019-05-09T08:28:58.643Z,62.10
2019-05-09T08:31:28.231Z,61.40
2019-05-09T08:33:59.396Z,60.00
2019-05-09T08:36:28.432Z,59.90
2019-05-09T08:38:58.682Z,59.30
2019-05-09T08:41:29.035Z,58.50
2019-05-09T08:43:58.959Z,57.20
2019-05-09T08:46:28.769Z,58.50
2019-05-09T08:48:58.255Z,58.50
2019-05-09T08:51:52.317Z,58.60
2019-05-09T08:54:13.433Z,56.60
2019-05-09T08:56:42.793Z,57.60
2019-05-09T08:59:12.077Z,56.60
2019-05-09T09:02:09.957Z,55.80
2019-05-09T09:04:12.056Z,55.10
2019-05-09T09:06:41.216Z,54.00
2019-05-09T09:09:10.316Z,53.70
2019-05-09T09:11:39.794Z,54.10
2019-05-09T09:14:09.023Z,52.30
2019-05-09T09:16:41.520Z,53.70
2019-05-09T09:19:09.056Z,53.50
2019-05-09T09:21:38.848Z,54.60
2019-05-09T09:24:08.868Z,55.00
2019-05-09T09:26:38.323Z,54.30
2019-05-09T09:29:08.514Z,54.10
2019-05-09T09:31:37.934Z,54.30
2019-05-09T09:34:07.885Z,55.80
2019-05-09T09:36:39.088Z,54.70
2019-05-09T09:39:08.993Z,53.50
2019-05-09T09:41:38.907Z,54.30
2019-05-09T09:44:08.904Z,53.90
2019-05-09T09:46:38.219Z,54.60
2019-05-09T09:49:08.099Z,52.00
2019-05-09T09:51:38.210Z,52.30
2019-05-09T09:54:08.814Z,51.80
2019-05-09T09:56:38.766Z,49.90
2019-05-09T09:59:28.194Z,51.20
2019-05-09T10:01:58.547Z,47.60
2019-05-09T10:04:28.388Z,49.90
2019-05-09T10:06:58.280Z,47.50
2019-05-09T10:09:27.641Z,47.60
2019-05-09T10:12:00.412Z,47.60
2019-05-09T10:14:29.284Z,45.80
2019-05-09T10:17:03.230Z,47.40
2019-05-09T10:19:34.046Z,47.20
2019-05-09T10:22:04.717Z,47.40
2019-05-09T10:24:34.150Z,47.10
2019-05-09T10:27:08.659Z,47.20
2019-05-09T10:29:38.842Z,46.20
2019-05-09T10:32:12.564Z,47.80
2019-05-09T10:34:41.775Z,49.60
2019-05-09T10:37:11.320Z,51.20
2019-05-09T10:39:40.571Z,48.80
2019-05-09T10:42:23.560Z,46.50
2019-05-09T10:45:10.673Z,45.30
2019-05-09T10:47:41.539Z,44.90
2019-05-09T10:50:10.734Z,46.60
2019-05-09T10:52:39.977Z,47.10
2019-05-09T10:55:09.415Z,46.20
2019-05-09T10:57:42.298Z,45.30
2019-05-09T11:00:09.283Z,43.60
2019-05-09T11:02:38.343Z,44.50
2019-05-09T11:05:08.509Z,43.50
2019-05-09T11:07:38.175Z,45.20
2019-05-09T11:10:23.682Z,46.80
2019-05-09T11:12:38.124Z,46.40
2019-05-09T11:15:09.183Z,45.10
2019-05-09T11:17:39.005Z,45.10
2019-05-09T11:20:08.888Z,44.60
2019-05-09T11:22:38.726Z,44.40
2019-05-09T11:25:08.836Z,43.60
2019-05-09T11:27:38.853Z,41.30
2019-05-09T11:30:08.535Z,40.70
2019-05-09T11:32:38.605Z,40.60
2019-05-09T11:35:08.939Z,40.20
2019-05-09T11:37:38.514Z,41.10
2019-05-09T11:40:08.387Z,42.30
2019-05-09T11:42:38.102Z,41.90
2019-05-09T11:45:07.779Z,42.20
2019-05-09T11:47:45.464Z,42.60
2019-05-09T11:50:08.874Z,44.20
2019-05-09T11:52:38.484Z,45.00
2019-05-09T11:55:09.324Z,46.10
2019-05-09T11:57:38.655Z,46.30
2019-05-09T12:00:08.432Z,47.60
2019-05-09T12:02:38.466Z,47.70
2019-05-09T12:05:08.888Z,49.00
2019-05-09T12:07:38.311Z,49.00
2019-05-09T12:10:10.663Z,49.90
2019-05-09T12:12:39.930Z,50.00
2019-05-09T12:15:09.362Z,49.90
2019-05-09T12:17:52.129Z,50.30
2019-05-09T12:20:13.870Z,50.50
2019-05-09T12:22:43.009Z,49.60
2019-05-09T12:25:12.148Z,50.30
2019-05-09T12:27:41.541Z,50.10
2019-05-09T12:30:10.820Z,50.30
2019-05-09T12:32:39.843Z,50.20
2019-05-09T12:35:09.081Z,50.70
2019-05-09T12:37:38.333Z,50.60
2019-05-09T12:40:08.537Z,49.80
2019-05-09T12:42:40.251Z,50.20
2019-05-09T12:45:09.485Z,50.90
2019-05-09T12:47:39.741Z,51.30
2019-05-09T12:50:09.299Z,52.00
2019-05-09T12:52:39.342Z,51.80
2019-05-09T12:55:08.652Z,51.50
2019-05-09T12:57:38.713Z,51.40
2019-05-09T13:00:09.028Z,48.50
2019-05-09T13:02:38.858Z,49.20
2019-05-09T13:05:08.193Z,47.70
2019-05-09T13:07:40.031Z,47.60
2019-05-09T13:10:08.953Z,44.10
2019-05-09T13:12:38.938Z,44.90
2019-05-09T13:15:08.989Z,43.00
2019-05-09T13:17:42.776Z,42.10
2019-05-09T13:20:12.802Z,42.20
2019-05-09T13:22:42.147Z,42.70
2019-05-09T13:25:11.449Z,42.50
2019-05-09T13:27:40.680Z,42.50
2019-05-09T13:30:10.951Z,42.50
2019-05-09T13:32:40.039Z,42.80
2019-05-09T13:35:09.312Z,43.40
2019-05-09T13:37:38.607Z,43.20
2019-05-09T13:40:08.613Z,43.40
2019-05-09T13:42:39.553Z,44.00
2019-05-09T13:45:09.106Z,43.90
2019-05-09T13:47:38.342Z,44.70
2019-05-09T13:50:08.958Z,44.90
2019-05-09T13:52:38.416Z,46.50
2019-05-09T13:55:08.688Z,46.40
2019-05-09T13:57:38.048Z,46.00
2019-05-09T14:00:08.930Z,46.60
2019-05-09T14:02:38.607Z,46.90
2019-05-09T14:05:09.138Z,47.20
2019-05-09T14:07:38.705Z,48.10
2019-05-09T14:10:10.163Z,48.30
2019-05-09T14:12:39.096Z,48.00
2019-05-09T14:15:08.706Z,48.70
2019-05-09T14:17:49.082Z,48.90
2019-05-09T14:20:09.090Z,48.60
2019-05-09T14:22:38.690Z,48.50
2019-05-09T14:25:11.597Z,48.90
2019-05-09T14:27:40.304Z,47.90
2019-05-09T14:30:09.633Z,47.20
2019-05-09T14:32:40.542Z,47.40
2019-05-09T14:35:10.443Z,47.30
2019-05-09T14:37:40.397Z,48.00
2019-05-09T14:40:10.461Z,48.20
2019-05-09T14:42:42.086Z,46.40
2019-05-09T14:45:12.726Z,47.20
2019-05-09T14:47:43.072Z,47.10
2019-05-09T14:50:13.665Z,47.60
2019-05-09T14:52:43.153Z,47.60
2019-05-09T14:55:13.549Z,47.50
2019-05-09T14:57:42.739Z,47.00
2019-05-09T15:00:13.453Z,47.60
2019-05-09T15:02:42.658Z,47.40
2019-05-09T15:05:12.368Z,47.00
2019-05-09T15:07:42.111Z,47.20
2019-05-09T15:10:12.469Z,47.30
2019-05-09T15:12:42.392Z,47.40
2019-05-09T15:15:12.057Z,47.80
2019-05-09T15:17:41.373Z,47.10
2019-05-09T15:20:11.123Z,47.40
2019-05-09T15:22:40.706Z,47.20
2019-05-09T15:25:09.896Z,47.60
2019-05-09T15:27:39.138Z,46.60
2019-05-09T15:30:09.391Z,46.50
2019-05-09T15:32:39.043Z,47.00
2019-05-09T15:35:09.105Z,47.10
2019-05-09T15:37:38.950Z,46.10
2019-05-09T15:40:08.881Z,46.30
2019-05-09T15:42:39.012Z,46.60
2019-05-09T15:45:08.846Z,46.60
2019-05-09T15:47:39.898Z,46.80
2019-05-09T15:50:19.325Z,46.30
2019-05-09T15:52:40.014Z,46.60
2019-05-09T15:55:11.464Z,46.80
2019-05-09T15:57:41.495Z,46.70
2019-05-09T16:00:14.002Z,48.00
2019-05-09T16:02:48.219Z,47.00
2019-05-09T16:05:18.054Z,46.90
2019-05-09T16:07:48.233Z,46.70
2019-05-09T16:10:18.224Z,47.40
2019-05-09T16:12:48.655Z,47.30
2019-05-09T16:15:18.963Z,47.10
2019-05-09T16:17:48.719Z,47.50
2019-05-09T16:20:35.973Z,47.80
2019-05-09T16:22:49.075Z,47.60
2019-05-09T16:25:18.950Z,47.80
2019-05-09T16:27:50.054Z,47.80
2019-05-09T16:30:19.426Z,47.20
2019-05-09T16:32:49.189Z,46.60
2019-05-09T16:35:18.467Z,46.90
2019-05-09T16:37:58.418Z,47.60
2019-05-09T16:40:18.840Z,47.30
2019-05-09T16:42:48.276Z,47.30
2019-05-09T16:45:18.189Z,47.00
2019-05-09T16:47:48.511Z,47.30
2019-05-09T16:50:18.092Z,47.20
2019-05-09T16:52:48.833Z,46.50
2019-05-09T16:55:22.455Z,45.80
2019-05-09T16:57:51.688Z,46.20
2019-05-09T17:00:32.198Z,46.20
2019-05-09T17:03:01.565Z,46.30
2019-05-09T17:05:30.835Z,47.30
2019-05-09T17:08:00.028Z,47.10
2019-05-09T17:10:29.236Z,47.10
2019-05-09T17:12:58.702Z,47.40
2019-05-09T17:15:29.260Z,48.30
2019-05-09T17:17:58.511Z,48.50
2019-05-09T17:20:29.320Z,48.20
2019-05-09T17:23:14.428Z,49.10
2019-05-09T17:25:39.938Z,48.70
2019-05-09T17:28:09.286Z,49.30
2019-05-09T17:30:38.606Z,49.50
2019-05-09T17:33:07.985Z,50.30
2019-05-09T17:35:38.634Z,49.20
2019-05-09T17:38:08.614Z,49.50
2019-05-09T17:40:39.327Z,50.30
2019-05-09T17:43:08.869Z,50.00
2019-05-09T17:45:41.414Z,50.50
2019-05-09T17:48:08.963Z,50.20
2019-05-09T17:50:38.579Z,50.30
2019-05-09T17:53:08.575Z,50.70
2019-05-09T17:55:38.353Z,51.50
2019-05-09T17:58:08.769Z,51.60
2019-05-09T18:00:38.447Z,52.40
2019-05-09T18:03:07.869Z,52.50
2019-05-09T18:05:38.974Z,52.70
2019-05-09T18:08:08.274Z,52.70
2019-05-09T18:10:38.233Z,53.00
2019-05-09T18:13:08.176Z,52.80
2019-05-09T18:15:38.062Z,52.90
2019-05-09T18:18:07.264Z,53.20
2019-05-09T18:20:37.924Z,54.00
2019-05-09T18:23:08.404Z,54.30
2019-05-09T18:25:38.049Z,54.80
2019-05-09T18:28:09.636Z,55.60
2019-05-09T18:30:43.906Z,55.40
2019-05-09T18:33:20.732Z,55.80
2019-05-09T18:35:54.182Z,56.00
2019-05-09T18:38:30.223Z,55.60
2019-05-09T18:41:01.764Z,55.80
2019-05-09T18:43:33.463Z,56.40
2019-05-09T18:46:02.895Z,56.50
2019-05-09T18:48:34.819Z,55.90
2019-05-09T18:51:07.974Z,56.60
2019-05-09T18:53:40.378Z,56.20
2019-05-09T18:56:14.023Z,56.80
2019-05-09T18:58:47.007Z,57.30
2019-05-09T19:01:19.133Z,58.10
2019-05-09T19:03:52.382Z,58.20
2019-05-09T19:06:24.268Z,57.60
2019-05-09T19:08:56.688Z,58.40
2019-05-09T19:11:29.834Z,57.90
2019-05-09T19:14:03.642Z,58.60
2019-05-09T19:16:44.927Z,59.60
2019-05-09T19:19:23.242Z,59.70
2019-05-09T19:21:55.570Z,61.90
2019-05-09T19:24:30.650Z,62.10
2019-05-09T19:27:03.391Z,63.00
2019-05-09T19:29:33.428Z,62.10
2019-05-09T19:32:03.726Z,63.00
2019-05-09T19:34:36.010Z,63.80
2019-05-09T19:37:05.863Z,63.40
2019-05-09T19:39:36.201Z,63.60
2019-05-09T19:42:05.584Z,65.40
2019-05-09T19:44:35.072Z,63.90
2019-05-09T19:47:04.915Z,64.20
2019-05-09T19:49:34.747Z,63.90
2019-05-09T19:52:06.266Z,64.70
2019-05-09T19:54:37.420Z,64.90
2019-05-09T19:57:08.152Z,64.60
2019-05-09T19:59:39.085Z,64.20
2019-05-09T20:02:11.038Z,65.00
2019-05-09T20:04:41.187Z,64.70
2019-05-09T20:07:14.916Z,65.10
2019-05-09T20:09:50.660Z,65.60
2019-05-09T20:12:32.219Z,65.10
2019-05-09T20:15:06.232Z,66.90
2019-05-09T20:17:41.489Z,66.10
2019-05-09T20:20:51.273Z,65.70
2019-05-09T20:23:24.956Z,67.50
2019-05-09T20:26:00.538Z,66.30
2019-05-09T20:28:32.440Z,66.20
2019-05-09T20:31:03.654Z,66.80
2019-05-09T20:33:37.757Z,66.50
2019-05-09T20:36:08.128Z,67.80
2019-05-09T20:38:39.221Z,67.00
2019-05-09T20:41:09.330Z,66.90
2019-05-09T20:43:39.207Z,67.50
2019-05-09T20:46:10.411Z,67.70
2019-05-09T20:48:40.221Z,68.10
2019-05-09T20:51:09.746Z,68.00
2019-05-09T20:53:39.205Z,68.10
2019-05-09T20:56:08.681Z,67.80
2019-05-09T20:58:38.138Z,67.50
2019-05-09T21:01:07.570Z,67.80
2019-05-09T21:03:37.008Z,67.30
2019-05-09T21:06:06.425Z,67.50
2019-05-09T21:08:35.595Z,67.30
2019-05-09T21:11:05.224Z,67.30
2019-05-09T21:13:47.329Z,68.30
2019-05-09T21:16:05.513Z,68.50
2019-05-09T21:18:35.060Z,68.40
2019-05-09T21:21:04.774Z,68.20
2019-05-09T21:23:34.282Z,68.20
2019-05-09T21:26:03.702Z,69.10
2019-05-09T21:28:33.087Z,68.90
2019-05-09T21:31:02.627Z,69.00
2019-05-09T21:33:32.114Z,69.30
2019-05-09T21:36:01.392Z,68.90
2019-05-09T21:38:30.575Z,69.60
2019-05-09T21:41:00.008Z,70.50
2019-05-09T21:43:29.267Z,70.10
2019-05-09T21:45:58.540Z,70.40
2019-05-09T21:48:27.733Z,69.90
2019-05-09T21:50:57.028Z,69.80
2019-05-09T21:53:39.815Z,69.70
2019-05-09T21:55:57.015Z,70.50
2019-05-09T21:58:26.167Z,69.90
2019-05-09T22:00:55.540Z,70.50
2019-05-09T22:03:24.758Z,70.00
2019-05-09T22:05:53.903Z,70.20
2019-05-09T22:08:22.908Z,70.30
2019-05-09T22:10:51.996Z,70.30
2019-05-09T22:13:21.244Z,69.80
2019-05-09T22:15:50.399Z,70.50
2019-05-09T22:18:19.709Z,69.60
2019-05-09T22:20:48.845Z,69.80
2019-05-09T22:23:17.938Z,69.80
2019-05-09T22:25:47.098Z,70.10
2019-05-09T22:28:16.346Z,70.70
2019-05-09T22:30:45.449Z,69.70
2019-05-09T22:33:14.636Z,70.50
2019-05-09T22:35:43.733Z,70.20
2019-05-09T22:38:13.047Z,70.30
2019-05-09T22:40:42.192Z,69.70
2019-05-09T22:43:11.327Z,70.10
2019-05-09T22:45:40.349Z,70.20
2019-05-09T22:48:09.652Z,69.60
2019-05-09T22:50:38.899Z,69.90
2019-05-09T22:53:08.068Z,70.70
2019-05-09T22:55:37.296Z,69.80
2019-05-09T22:58:06.581Z,70.70
2019-05-09T23:00:35.765Z,70.40
2019-05-09T23:03:05.004Z,69.60
2019-05-09T23:05:34.187Z,70.00
2019-05-09T23:08:03.558Z,70.10
2019-05-09T23:10:32.685Z,69.30
2019-05-09T23:13:01.913Z,69.40
2019-05-09T23:15:31.142Z,70.00
2019-05-09T23:18:00.422Z,69.70
2019-05-09T23:20:43.576Z,70.60
2019-05-09T23:23:23.180Z,70.70
2019-05-09T23:25:52.283Z,71.00
2019-05-09T23:28:21.527Z,69.80
2019-05-09T23:30:52.242Z,69.90
2019-05-09T23:33:22.152Z,70.40
2019-05-09T23:35:51.396Z,69.80
2019-05-09T23:38:20.651Z,70.00
2019-05-09T23:40:49.976Z,69.80
2019-05-09T23:43:19.324Z,69.60
2019-05-09T23:45:49.045Z,70.30
2019-05-09T23:48:18.171Z,69.40
2019-05-09T23:50:47.322Z,70.20
2019-05-09T23:53:19.204Z,69.50
2019-05-09T23:56:06.175Z,70.00
2019-05-09T23:58:53.534Z,69.80
